Terminal Aerodrome Forecast
Issued by NWS Glasgow, MT

Home | Current Version | Previous Version | Text Only | Print | Product List | Glossary On
Versions: 1 2 3 4 5 6 7 8 9 10 11 12 13 14 15 16
811
FTUS45 KGGW 280520
TAFGGW
TAF
KGGW 280520Z 2806/2906 33006KT P6SM SCT110
     FM281400 31010KT P6SM FEW110
     FM281700 32018KT P6SM FEW100
     FM290300 36009KT P6SM SKC=

USA.gov is the U.S. government's official web portal to all federal, state and local government web resources and services.